Time;durP1;ratioP1;P1;durP2;ratioP2;P2;SDS_P1;SDS_P2;PMS_P1;PMS_P2;Temp;Humidity;BMP_temperature;BMP_pressure;BME280_temperature;BME280_humidity;BME280_pressure;Samples;Min_cycle;Max_cycle;Signal;HPM_P1;HPM_P2
2021/03/09 00:01:27;;;;;;;28.35;17.15;;;22.60;29.00;;;;;;5092122;28;20100;-75
2021/03/09 00:03:53;;;;;;;28.95;17.50;;;22.50;29.00;;;;;;5091824;28;20016;-76
2021/03/09 00:06:18;;;;;;;34.13;18.52;;;22.50;29.10;;;;;;5090310;28;20039;-76
2021/03/09 00:08:44;;;;;;;28.05;18.08;;;22.50;29.10;;;;;;5091157;28;20052;-76
2021/03/09 00:11:09;;;;;;;28.92;17.88;;;22.50;29.10;;;;;;5092520;28;20090;-75
2021/03/09 00:13:35;;;;;;;31.30;17.75;;;22.40;29.10;;;;;;5090510;28;20377;-75
2021/03/09 00:16:01;;;;;;;32.03;18.83;;;22.40;29.20;;;;;;5092320;28;20020;-75
2021/03/09 00:18:26;;;;;;;27.20;16.70;;;22.40;29.20;;;;;;5090301;28;20526;-76
2021/03/09 00:20:52;;;;;;;27.80;17.67;;;22.40;29.20;;;;;;5092812;28;20491;-75
2021/03/09 00:23:17;;;;;;;28.80;16.60;;;22.40;29.20;;;;;;5091864;28;20020;-75
2021/03/09 00:25:43;;;;;;;31.27;16.67;;;22.30;29.20;;;;;;5091411;28;20032;-75
2021/03/09 00:28:22;;;;;;;32.55;18.85;;;22.30;29.30;;;;;;5092171;28;20028;-75
2021/03/09 00:30:47;;;;;;;30.02;17.15;;;22.30;29.30;;;;;;5091626;28;20403;-76
2021/03/09 00:33:13;;;;;;;27.58;16.92;;;22.30;29.40;;;;;;5089864;28;20048;-76
2021/03/09 00:35:39;;;;;;;30.10;17.30;;;22.30;29.40;;;;;;5091653;28;20103;-76
2021/03/09 00:38:04;;;;;;;29.05;17.77;;;22.30;29.40;;;;;;5092595;28;20123;-76
2021/03/09 00:40:30;;;;;;;28.65;16.73;;;22.30;29.40;;;;;;5090943;28;20027;-75
2021/03/09 00:42:55;;;;;;;29.75;18.50;;;22.20;29.40;;;;;;5092006;28;20028;-76
2021/03/09 00:45:21;;;;;;;28.70;17.08;;;22.20;29.40;;;;;;5091502;28;20032;-76
2021/03/09 00:47:47;;;;;;;27.63;16.77;;;22.20;29.50;;;;;;5091180;28;20023;-76
2021/03/09 00:50:13;;;;;;;29.88;16.55;;;22.20;29.50;;;;;;5091344;28;20059;-72
2021/03/09 00:52:39;;;;;;;35.78;20.23;;;22.20;29.50;;;;;;5091929;28;20043;-72
2021/03/09 00:55:05;;;;;;;30.33;17.40;;;22.20;29.60;;;;;;5082017;28;20032;-71
2021/03/09 00:57:30;;;;;;;26.70;16.98;;;22.20;29.60;;;;;;5066185;28;20472;-72
2021/03/09 01:00:05;;;;;;;28.35;17.48;;;22.10;29.60;;;;;;5092022;28;20095;-71
2021/03/09 01:02:31;;;;;;;28.25;16.15;;;22.10;29.60;;;;;;5090583;28;20047;-71
2021/03/09 01:04:57;;;;;;;31.48;18.08;;;22.10;29.60;;;;;;5091482;28;20058;-71
2021/03/09 01:07:22;;;;;;;27.38;16.65;;;22.10;29.60;;;;;;5090430;28;20483;-71
2021/03/09 01:09:48;;;;;;;29.95;18.10;;;22.10;29.70;;;;;;5090513;28;20058;-71
2021/03/09 01:12:13;;;;;;;26.10;16.67;;;22.10;29.70;;;;;;5091534;28;20017;-71
2021/03/09 01:14:39;;;;;;;31.38;16.55;;;22.00;29.70;;;;;;5092333;28;20513;-71
2021/03/09 01:17:05;;;;;;;29.17;16.27;;;22.00;29.70;;;;;;5095262;28;20103;-71
2021/03/09 01:19:30;;;;;;;30.98;17.35;;;22.00;29.70;;;;;;5097560;28;20399;-71
2021/03/09 01:21:56;;;;;;;29.38;16.52;;;22.00;29.80;;;;;;5094118;28;20027;-71
2021/03/09 01:24:21;;;;;;;29.15;17.17;;;22.00;29.70;;;;;;5092509;28;20602;-71
2021/03/09 01:26:47;;;;;;;28.98;16.77;;;22.00;29.80;;;;;;5093187;28;20021;-71
2021/03/09 01:29:12;;;;;;;30.70;18.10;;;22.00;29.80;;;;;;5095200;28;20051;-71
2021/03/09 01:31:38;;;;;;;30.17;16.80;;;22.00;29.80;;;;;;5095138;28;20012;-71
2021/03/09 01:34:03;;;;;;;27.40;16.80;;;22.00;29.80;;;;;;5094999;28;20051;-77
2021/03/09 01:36:29;;;;;;;31.75;17.45;;;22.00;29.70;;;;;;5094045;28;20460;-76
2021/03/09 01:38:55;;;;;;;28.95;17.33;;;22.00;29.80;;;;;;5094925;28;20032;-76
2021/03/09 01:41:20;;;;;;;29.00;15.65;;;22.00;29.80;;;;;;5093420;28;20044;-76
2021/03/09 01:43:46;;;;;;;28.08;16.90;;;22.00;29.80;;;;;;5094802;28;20024;-76
2021/03/09 01:46:12;;;;;;;28.83;15.90;;;22.00;29.80;;;;;;5093352;28;20503;-76
2021/03/09 01:48:41;;;;;;;29.95;15.57;;;22.00;29.80;;;;;;5093004;28;20082;-70
2021/03/09 01:51:07;;;;;;;28.98;16.83;;;22.00;29.80;;;;;;5076340;28;20034;-70
2021/03/09 01:53:33;;;;;;;26.15;15.90;;;22.00;29.80;;;;;;5092919;28;20122;-70
2021/03/09 01:55:58;;;;;;;28.73;16.38;;;22.00;29.90;;;;;;5092761;28;20036;-70
2021/03/09 01:58:24;;;;;;;26.67;16.50;;;22.00;29.90;;;;;;5075854;28;20032;-70
2021/03/09 02:00:49;;;;;;;29.40;16.35;;;22.00;29.90;;;;;;5093321;28;20031;-70
2021/03/09 02:03:18;;;;;;;30.75;17.05;;;22.00;29.90;;;;;;5094564;28;20055;-70
2021/03/09 02:05:43;;;;;;;26.10;14.90;;;22.00;30.00;;;;;;5092000;28;20043;-70
2021/03/09 02:08:09;;;;;;;27.92;16.17;;;21.90;29.90;;;;;;5093111;28;20035;-70
2021/03/09 02:10:35;;;;;;;31.38;16.45;;;21.90;30.00;;;;;;5076472;28;20491;-70
2021/03/09 02:13:25;;;;;;;28.55;15.60;;;21.90;30.00;;;;;;5075847;28;20496;-70
2021/03/09 02:16:01;;;;;;;25.88;14.52;;;21.90;30.00;;;;;;5093589;28;20036;-70
2021/03/09 02:18:43;;;;;;;25.52;14.80;;;21.90;30.00;;;;;;5095650;28;20035;-71
2021/03/09 02:21:50;;;;;;;29.58;16.67;;;21.90;30.00;;;;;;5093889;28;20496;-72
2021/03/09 02:24:53;;;;;;;25.70;15.27;;;21.80;30.00;;;;;;5069347;28;20032;-71
2021/03/09 02:27:39;;;;;;;27.52;15.20;;;21.80;30.00;;;;;;5093653;28;20043;-71
2021/03/09 02:30:16;;;;;;;27.33;15.50;;;21.80;30.00;;;;;;5092549;28;20056;-71
2021/03/09 02:33:13;;;;;;;29.38;15.18;;;21.80;30.00;;;;;;5092714;28;20048;-71
2021/03/09 02:36:03;;;;;;;26.23;14.73;;;21.80;30.10;;;;;;5093759;28;20032;-72
2021/03/09 02:38:33;;;;;;;26.63;15.93;;;21.80;30.10;;;;;;5092659;28;20039;-72
2021/03/09 02:41:00;;;;;;;25.30;14.25;;;21.70;30.20;;;;;;5059561;28;20044;-71
2021/03/09 02:43:26;;;;;;;26.67;14.00;;;21.70;30.20;;;;;;5075447;28;20074;-72
2021/03/09 02:45:52;;;;;;;26.15;13.52;;;21.70;30.20;;;;;;5092409;28;20024;-75
2021/03/09 02:48:22;;;;;;;28.23;15.25;;;21.70;30.20;;;;;;5092391;28;20445;-75
2021/03/09 02:50:51;;;;;;;22.42;13.90;;;21.70;30.20;;;;;;5075598;28;20445;-74
2021/03/09 02:53:26;;;;;;;24.85;14.60;;;21.70;30.20;;;;;;5075335;28;20024;-74
2021/03/09 02:55:52;;;;;;;25.63;13.98;;;21.70;30.20;;;;;;5071030;28;20032;-75
2021/03/09 02:58:18;;;;;;;26.58;14.15;;;21.70;30.20;;;;;;5074773;28;20032;-75
2021/03/09 03:00:44;;;;;;;25.38;14.38;;;21.60;30.20;;;;;;5075036;28;20036;-71
2021/03/09 03:03:12;;;;;;;24.77;14.63;;;21.60;30.20;;;;;;5074412;28;20122;-71
2021/03/09 03:05:38;;;;;;;25.77;13.68;;;21.60;30.30;;;;;;5074984;28;20047;-71
2021/03/09 03:08:10;;;;;;;27.55;15.13;;;21.60;30.30;;;;;;5092050;28;20036;-71
2021/03/09 03:10:36;;;;;;;24.25;14.35;;;21.60;30.30;;;;;;5075838;28;20066;-71
2021/03/09 03:16:24;;;;;;;24.20;14.05;;;21.60;30.30;;;;;;5092591;28;20023;-71
2021/03/09 03:18:49;;;;;;;23.33;13.23;;;21.60;30.30;;;;;;5098379;28;20024;-71
2021/03/09 03:21:15;;;;;;;22.17;13.02;;;21.60;30.20;;;;;;5091736;28;20035;-71
2021/03/09 03:23:41;;;;;;;22.52;13.18;;;21.60;30.20;;;;;;5092543;28;20024;-72
2021/03/09 03:26:07;;;;;;;21.40;12.50;;;21.60;30.30;;;;;;5092980;28;20027;-71
2021/03/09 03:28:55;;;;;;;27.13;15.20;;;21.60;30.30;;;;;;5074010;28;20062;-71
2021/03/09 03:31:20;;;;;;;26.02;15.02;;;21.60;30.20;;;;;;5091252;28;20039;-75
2021/03/09 03:33:48;;;;;;;24.98;14.05;;;21.60;30.20;;;;;;5092259;28;20040;-75
2021/03/09 03:36:13;;;;;;;22.58;14.30;;;21.60;30.30;;;;;;5091139;28;20498;-75
2021/03/09 03:38:40;;;;;;;20.60;12.93;;;21.60;30.40;;;;;;5089324;28;20020;-74
2021/03/09 03:44:27;;;;;;;23.02;14.23;;;21.60;30.50;;;;;;5092335;28;20061;-75
2021/03/09 03:46:53;;;;;;;24.75;14.32;;;21.60;30.50;;;;;;5093129;28;20020;-75
2021/03/09 03:49:18;;;;;;;24.58;14.75;;;21.60;30.50;;;;;;5092186;28;20020;-75
2021/03/09 03:51:45;;;;;;;23.88;13.82;;;21.60;30.50;;;;;;5069169;28;20027;-75
2021/03/09 03:54:31;;;;;;;25.40;15.10;;;21.60;30.50;;;;;;5074235;28;20024;-75
2021/03/09 03:57:20;;;;;;;21.40;13.63;;;21.60;30.60;;;;;;5069705;28;20119;-76
2021/03/09 03:59:48;;;;;;;19.73;12.57;;;21.50;30.60;;;;;;5074143;28;20165;-75
2021/03/09 04:02:15;;;;;;;23.30;14.00;;;21.50;30.60;;;;;;5090804;28;20012;-76
2021/03/09 04:04:41;;;;;;;27.73;15.32;;;21.50;30.60;;;;;;5090924;28;20020;-75
2021/03/09 04:07:07;;;;;;;20.13;12.18;;;21.50;30.70;;;;;;5074050;28;20121;-74
2021/03/09 04:09:32;;;;;;;22.05;13.18;;;21.50;30.70;;;;;;5074417;28;20483;-75
2021/03/09 04:11:59;;;;;;;22.95;13.65;;;21.50;30.90;;;;;;5074003;28;20054;-75
2021/03/09 04:14:25;;;;;;;26.23;14.68;;;21.50;30.70;;;;;;5091062;28;20028;-75
2021/03/09 04:16:52;;;;;;;21.13;13.32;;;21.50;30.70;;;;;;5073738;28;20373;-75
2021/03/09 04:19:22;;;;;;;22.77;13.63;;;21.50;30.70;;;;;;5096052;28;20065;-75
2021/03/09 04:21:47;;;;;;;25.75;13.63;;;21.50;30.70;;;;;;5084472;28;20024;-75
2021/03/09 04:24:19;;;;;;;23.40;14.00;;;21.50;30.90;;;;;;5073197;28;20032;-76
2021/03/09 04:26:45;;;;;;;23.05;13.52;;;21.50;30.80;;;;;;5074110;28;20553;-75
2021/03/09 04:29:11;;;;;;;26.55;15.40;;;21.40;30.80;;;;;;5074500;28;20028;-71
2021/03/09 04:31:40;;;;;;;22.00;13.18;;;21.40;30.80;;;;;;5089654;28;20038;-72
2021/03/09 04:34:06;;;;;;;22.05;13.13;;;21.40;30.80;;;;;;5084731;28;20055;-72
2021/03/09 04:36:32;;;;;;;21.85;11.98;;;21.40;30.80;;;;;;5073539;28;20032;-72
2021/03/09 04:38:57;;;;;;;26.20;15.63;;;21.40;30.90;;;;;;5090077;28;20032;-72
2021/03/09 04:41:23;;;;;;;26.30;14.50;;;21.40;30.90;;;;;;5074011;28;20032;-72
2021/03/09 04:43:49;;;;;;;23.90;14.77;;;21.40;31.00;;;;;;5091570;28;20024;-72
2021/03/09 04:46:14;;;;;;;23.58;13.88;;;21.40;30.90;;;;;;5089649;28;20050;-72
2021/03/09 04:48:40;;;;;;;22.50;12.80;;;21.40;30.90;;;;;;5090934;28;20040;-72
2021/03/09 04:51:09;;;;;;;25.80;15.68;;;21.40;30.90;;;;;;5077580;28;20460;-71
2021/03/09 04:53:34;;;;;;;23.88;13.77;;;21.30;31.00;;;;;;5094561;28;20107;-72
2021/03/09 04:56:00;;;;;;;29.60;17.02;;;21.40;30.90;;;;;;5059536;28;20120;-72
2021/03/09 04:58:26;;;;;;;28.42;15.60;;;21.40;30.90;;;;;;5093844;28;20450;-72
2021/03/09 05:00:52;;;;;;;0.55;0.47;;;21.40;30.90;;;;;;5095648;28;20082;-72
2021/03/09 05:03:18;;;;;;;0.80;0.28;;;21.40;31.00;;;;;;5093981;28;20039;-72
2021/03/09 05:05:51;;;;;;;0.50;0.45;;;21.40;30.90;;;;;;5072789;28;20036;-71
2021/03/09 05:08:16;;;;;;;1.45;0.82;;;21.40;31.20;;;;;;5090708;28;20027;-74
2021/03/09 05:10:42;;;;;;;1.17;1.00;;;21.40;31.20;;;;;;5077427;28;20488;-74
2021/03/09 05:13:08;;;;;;;0.90;0.75;;;21.40;31.20;;;;;;5077166;28;20474;-75
2021/03/09 05:15:39;;;;;;;0.75;0.40;;;21.50;31.10;;;;;;5093607;28;20067;-76
2021/03/09 05:18:05;;;;;;;2.33;0.70;;;21.50;31.20;;;;;;5093613;28;20032;-76
2021/03/09 05:20:30;;;;;;;2.15;0.90;;;21.60;31.10;;;;;;5093311;28;20040;-76
2021/03/09 05:22:56;;;;;;;1.52;0.70;;;21.70;30.90;;;;;;5095097;28;20020;-76
2021/03/09 05:25:31;;;;;;;0.52;0.52;;;21.80;30.90;;;;;;5093373;28;20032;-76
2021/03/09 05:27:57;;;;;;;0.70;0.50;;;21.90;30.80;;;;;;5077014;28;20503;-76
2021/03/09 05:30:23;;;;;;;1.45;1.13;;;21.90;30.70;;;;;;5077008;28;20251;-75
2021/03/09 05:32:48;;;;;;;5.05;0.88;;;22.00;30.60;;;;;;5094176;28;20094;-76
2021/03/09 05:35:15;;;;;;;0.65;0.65;;;22.10;30.40;;;;;;5093701;28;20020;-76
2021/03/09 05:37:40;;;;;;;1.95;0.47;;;22.10;30.30;;;;;;5076957;28;20040;-76
2021/03/09 05:40:07;;;;;;;0.80;0.80;;;22.20;30.20;;;;;;5093540;28;20115;-76
2021/03/09 05:42:33;;;;;;;1.27;0.80;;;22.30;30.20;;;;;;5076966;28;20460;-76
2021/03/09 05:44:58;;;;;;;1.02;0.65;;;22.30;30.10;;;;;;5075598;28;20127;-78
2021/03/09 05:47:24;;;;;;;1.55;1.05;;;22.40;30.00;;;;;;5099509;28;20062;-78
2021/03/09 05:49:49;;;;;;;1.40;0.43;;;22.40;30.00;;;;;;5093598;28;20443;-76
2021/03/09 05:52:19;;;;;;;2.42;1.17;;;22.50;30.00;;;;;;5094123;28;20369;-76
2021/03/09 05:54:45;;;;;;;1.70;1.10;;;22.50;29.90;;;;;;5093503;28;20024;-77
2021/03/09 05:57:10;;;;;;;1.20;0.98;;;22.60;29.80;;;;;;5076005;28;20032;-79
2021/03/09 05:59:36;;;;;;;1.90;1.10;;;22.60;29.80;;;;;;5092771;28;20514;-76
2021/03/09 06:02:03;;;;;;;3.47;0.65;;;22.70;29.80;;;;;;5075729;28;20035;-76
2021/03/09 06:04:32;;;;;;;0.45;0.35;;;22.70;29.80;;;;;;5075245;28;20508;-76
2021/03/09 06:06:58;;;;;;;1.52;0.90;;;22.70;29.80;;;;;;5091305;28;20487;-77
2021/03/09 06:09:33;;;;;;;1.95;0.77;;;22.80;29.80;;;;;;5092051;28;20064;-71
2021/03/09 06:12:18;;;;;;;0.85;0.85;;;22.80;29.70;;;;;;5094079;28;20024;-71
2021/03/09 06:15:00;;;;;;;0.20;0.20;;;22.90;29.70;;;;;;5092533;28;20020;-71
2021/03/09 06:17:27;;;;;;;8.40;0.50;;;22.90;29.70;;;;;;5093926;28;20024;-71
2021/03/09 06:20:18;;;;;;;1.45;0.70;;;22.90;29.60;;;;;;5075337;28;20099;-71
2021/03/09 06:22:49;;;;;;;2.30;0.70;;;23.00;29.60;;;;;;5092239;28;20457;-71
2021/03/09 06:25:22;;;;;;;0.85;0.85;;;23.00;29.60;;;;;;5075721;28;20384;-70
2021/03/09 06:27:48;;;;;;;1.60;0.75;;;23.00;29.50;;;;;;5092110;28;20024;-71
2021/03/09 06:30:15;;;;;;;0.60;0.50;;;23.00;29.50;;;;;;5091895;28;20032;-76
2021/03/09 06:32:45;;;;;;;1.65;0.68;;;23.10;29.50;;;;;;5092804;28;20040;-76
2021/03/09 06:35:38;;;;;;;2.20;1.02;;;23.00;29.50;;;;;;5091961;28;20552;-75
2021/03/09 06:38:24;;;;;;;1.63;0.88;;;23.10;29.50;;;;;;5088257;28;20483;-76
2021/03/09 06:41:09;;;;;;;1.83;0.93;;;23.00;29.50;;;;;;5089658;28;20050;-76
2021/03/09 06:43:36;;;;;;;1.67;0.40;;;23.00;29.50;;;;;;5090802;28;20328;-75
2021/03/09 06:46:42;;;;;;;0.80;0.77;;;23.00;29.50;;;;;;5093349;28;20085;-75
2021/03/09 06:49:08;;;;;;;0.47;0.43;;;23.10;29.60;;;;;;5091342;28;20023;-76
2021/03/09 06:51:34;;;;;;;1.30;0.85;;;23.10;29.60;;;;;;5091830;28;20510;-76
2021/03/09 06:54:03;;;;;;;2.13;1.17;;;23.00;29.60;;;;;;5075459;28;20032;-76
2021/03/09 06:56:29;;;;;;;1.90;0.77;;;23.00;29.60;;;;;;5092805;28;20092;-76
2021/03/09 06:58:55;;;;;;;1.50;0.90;;;23.00;29.60;;;;;;5089344;28;20028;-78
2021/03/09 07:01:21;;;;;;;0.47;0.47;;;23.10;29.60;;;;;;5091601;28;20491;-75
2021/03/09 07:03:46;;;;;;;2.40;0.65;;;23.00;29.60;;;;;;5092211;28;20012;-78
2021/03/09 07:06:12;;;;;;;1.88;0.75;;;23.00;29.70;;;;;;5091342;28;20115;-77
2021/03/09 07:08:37;;;;;;;0.10;0.10;;;23.00;29.70;;;;;;5091600;28;20062;-75
2021/03/09 07:11:03;;;;;;;0.60;0.45;;;23.00;29.70;;;;;;5084218;28;20024;-76
2021/03/09 07:13:29;;;;;;;4.85;1.40;;;23.10;29.70;;;;;;5077610;28;20042;-75
2021/03/09 07:15:55;;;;;;;1.65;0.50;;;23.10;29.70;;;;;;5091368;28;20038;-79
2021/03/09 07:18:23;;;;;;;0.68;0.68;;;23.10;29.80;;;;;;5091417;28;20422;-79
2021/03/09 07:20:48;;;;;;;2.08;1.10;;;23.10;29.70;;;;;;5091099;28;20556;-79
2021/03/09 07:23:24;;;;;;;1.35;1.05;;;23.20;29.70;;;;;;5093182;28;20024;-71
2021/03/09 07:25:52;;;;;;;1.77;0.80;;;23.20;29.60;;;;;;5090512;28;20407;-71
2021/03/09 07:28:18;;;;;;;2.05;0.95;;;23.40;29.60;;;;;;5090283;28;20074;-71
2021/03/09 07:30:44;;;;;;;2.95;0.82;;;23.40;29.40;;;;;;5073908;28;20043;-71
2021/03/09 07:33:09;;;;;;;1.75;1.08;;;23.50;29.40;;;;;;5074007;28;20040;-71
2021/03/09 07:35:45;;;;;;;0.40;0.40;;;23.60;29.30;;;;;;5074787;28;20112;-71
2021/03/09 07:38:10;;;;;;;0.68;0.65;;;23.60;29.10;;;;;;5092064;28;20028;-79
2021/03/09 07:40:36;;;;;;;0.70;0.70;;;23.60;29.20;;;;;;5092531;28;20660;-80
2021/03/09 07:43:02;;;;;;;0.75;0.45;;;23.60;29.00;;;;;;5073438;28;20040;-80
2021/03/09 07:45:32;;;;;;;4.05;2.00;;;23.60;29.00;;;;;;5091223;28;20039;-80
2021/03/09 07:48:01;;;;;;;2.97;1.30;;;23.60;29.00;;;;;;5090825;28;20028;-80
2021/03/09 07:50:31;;;;;;;2.92;0.93;;;23.60;29.10;;;;;;5092519;28;20047;-80
2021/03/09 07:53:05;;;;;;;1.15;0.90;;;23.60;29.10;;;;;;5074124;28;20089;-80
2021/03/09 07:55:31;;;;;;;1.85;0.82;;;23.60;29.20;;;;;;5093784;28;20020;-80
2021/03/09 07:58:16;;;;;;;1.85;0.77;;;23.50;29.20;;;;;;5091324;28;20078;-78
2021/03/09 08:01:03;;;;;;;1.73;0.75;;;23.50;29.20;;;;;;5075112;28;20028;-71
2021/03/09 08:03:30;;;;;;;1.95;0.60;;;23.60;29.20;;;;;;5091949;28;20382;-71
2021/03/09 08:06:09;;;;;;;1.38;0.68;;;23.60;29.20;;;;;;5083115;28;20024;-70
2021/03/09 08:08:37;;;;;;;2.20;1.10;;;23.60;29.20;;;;;;5088203;28;20036;-70
2021/03/09 08:11:04;;;;;;;1.02;0.93;;;23.60;29.20;;;;;;5085720;28;20068;-71
2021/03/09 08:13:31;;;;;;;3.75;1.52;;;23.60;29.20;;;;;;5088595;28;20028;-70
2021/03/09 08:16:19;;;;;;;0.63;0.63;;;23.60;29.20;;;;;;5085164;28;20059;-75
2021/03/09 08:18:44;;;;;;;0.75;0.50;;;23.70;29.30;;;;;;5090041;28;20060;-76
2021/03/09 08:21:10;;;;;;;2.28;1.15;;;23.70;29.30;;;;;;5083549;28;20716;-78
2021/03/09 08:23:45;;;;;;;1.20;1.10;;;23.70;29.20;;;;;;5063456;28;20039;-72
2021/03/09 08:26:13;;;;;;;0.97;0.87;;;23.80;29.20;;;;;;5091630;28;20035;-72
2021/03/09 08:28:42;;;;;;;1.27;0.63;;;23.80;29.20;;;;;;5090416;28;20520;-79
2021/03/09 08:31:14;;;;;;;2.85;0.57;;;23.80;29.20;;;;;;5095187;28;20493;-79
2021/03/09 08:33:42;;;;;;;10.20;1.33;;;23.80;29.30;;;;;;5092413;28;20047;-79
2021/03/09 08:36:20;;;;;;;2.10;1.30;;;23.80;29.30;;;;;;5095474;28;20031;-79
2021/03/09 08:39:04;;;;;;;1.05;0.52;;;23.80;29.40;;;;;;5089375;28;20028;-79
2021/03/09 08:41:36;;;;;;;1.08;0.93;;;23.80;29.40;;;;;;5093621;28;20016;-78
2021/03/09 08:44:22;;;;;;;0.73;0.65;;;23.80;29.40;;;;;;5097318;28;20024;-78
2021/03/09 08:47:13;;;;;;;7.57;1.45;;;23.80;29.40;;;;;;5086430;28;20090;-78
2021/03/09 08:49:44;;;;;;;0.38;0.38;;;23.80;29.40;;;;;;5071585;28;20077;-79
2021/03/09 08:52:11;;;;;;;0.85;0.73;;;23.80;29.50;;;;;;5094308;28;20055;-71
2021/03/09 08:54:48;;;;;;;0.93;0.77;;;23.80;29.50;;;;;;5092839;28;20055;-78
2021/03/09 08:57:14;;;;;;;5.68;1.45;;;23.80;29.50;;;;;;5094104;28;20415;-78
2021/03/09 08:59:43;;;;;;;0.30;0.30;;;23.80;29.40;;;;;;5094276;28;20020;-78
2021/03/09 09:02:57;;;;;;;1.58;1.05;;;23.80;29.40;;;;;;5108619;27;20051;-79
2021/03/09 09:05:28;;;;;;;4.13;1.88;;;23.80;29.40;;;;;;5055366;28;20045;-79
2021/03/09 09:07:54;;;;;;;5.60;1.35;;;23.90;29.40;;;;;;5036550;28;20033;-79
2021/03/09 09:10:24;;;;;;;0.73;0.63;;;23.80;29.30;;;;;;5047193;28;20037;-71
2021/03/09 09:12:53;;;;;;;0.60;0.55;;;23.90;29.40;;;;;;5031449;28;20037;-71
2021/03/09 09:15:20;;;;;;;1.70;1.10;;;23.90;29.40;;;;;;5035522;28;20037;-72
2021/03/09 09:17:55;;;;;;;2.92;1.55;;;23.90;29.30;;;;;;5027164;28;20512;-72
2021/03/09 09:20:23;;;;;;;2.17;0.40;;;23.90;29.30;;;;;;5023653;28;20025;-72
2021/03/09 09:22:53;;;;;;;4.18;1.90;;;24.00;29.40;;;;;;5056053;28;20159;-72
2021/03/09 09:25:24;;;;;;;1.10;1.00;;;23.90;29.30;;;;;;5022559;28;20023;-72
2021/03/09 09:28:02;;;;;;;1.00;0.35;;;24.00;29.30;;;;;;5010376;28;20048;-72
2021/03/09 09:30:43;;;;;;;2.25;1.33;;;24.00;29.40;;;;;;5036858;28;20033;-72
2021/03/09 09:33:09;;;;;;;0.70;0.60;;;23.90;29.30;;;;;;5012879;28;20095;-72
2021/03/09 09:35:35;;;;;;;1.77;1.00;;;23.90;29.40;;;;;;5022424;28;20038;-72
2021/03/09 09:38:13;;;;;;;0.85;0.80;;;23.90;29.40;;;;;;5021693;28;20037;-71
2021/03/09 09:40:39;;;;;;;0.85;0.70;;;23.90;29.40;;;;;;5020091;28;20029;-72
2021/03/09 09:43:26;;;;;;;2.30;1.20;;;23.90;29.40;;;;;;5040888;28;20037;-72
2021/03/09 09:46:29;;;;;;;1.50;0.85;;;23.80;29.50;;;;;;5037910;28;20025;-72
2021/03/09 09:48:55;;;;;;;1.77;0.65;;;23.80;29.50;;;;;;5044574;28;20025;-72
2021/03/09 09:51:21;;;;;;;1.35;1.02;;;23.80;29.50;;;;;;5018242;28;20059;-71
2021/03/09 09:53:57;;;;;;;0.70;0.70;;;23.80;29.60;;;;;;5036091;28;20029;-71
2021/03/09 09:56:24;;;;;;;1.45;1.02;;;23.80;29.70;;;;;;5052006;28;20032;-72
2021/03/09 09:58:57;;;;;;;1.98;0.52;;;23.70;29.60;;;;;;5051817;28;20048;-72
2021/03/09 10:01:38;;;;;;;1.98;0.70;;;23.70;29.70;;;;;;5045266;28;20025;-72
2021/03/09 10:04:07;;;;;;;1.08;0.77;;;23.70;29.70;;;;;;5042197;28;20104;-71
2021/03/09 10:06:46;;;;;;;3.10;1.45;;;23.70;29.80;;;;;;5047891;28;20025;-71
2021/03/09 10:09:20;;;;;;;1.88;0.90;;;23.70;29.80;;;;;;5039327;28;20037;-72
2021/03/09 10:11:51;;;;;;;0.40;0.40;;;23.70;29.80;;;;;;5042098;28;20037;-72
2021/03/09 10:14:17;;;;;;;1.27;0.70;;;23.70;29.90;;;;;;5041441;28;20021;-73
2021/03/09 10:16:42;;;;;;;5.38;0.93;;;23.60;29.80;;;;;;5040408;28;20085;-72
2021/03/09 10:19:17;;;;;;;0.38;0.38;;;23.70;29.90;;;;;;5042108;28;20484;-72
2021/03/09 10:21:42;;;;;;;2.78;1.33;;;23.70;29.90;;;;;;5042114;28;20048;-72
2021/03/09 10:24:08;;;;;;;1.17;0.90;;;23.70;29.90;;;;;;5039922;28;20480;-72
2021/03/09 10:26:43;;;;;;;2.33;1.10;;;23.70;29.90;;;;;;5042887;28;20493;-72
2021/03/09 10:29:13;;;;;;;3.95;1.50;;;23.70;29.80;;;;;;5043423;28;20133;-71
2021/03/09 10:31:49;;;;;;;0.88;0.85;;;23.80;29.80;;;;;;5041998;28;20033;-71
2021/03/09 10:34:38;;;;;;;1.35;0.60;;;23.80;29.80;;;;;;5081750;28;20044;-71
2021/03/09 10:37:04;;;;;;;1.00;0.85;;;23.80;29.80;;;;;;5084574;28;20016;-71
2021/03/09 10:42:52;;;;;;;1.00;0.52;;;23.80;29.80;;;;;;5088617;28;20133;-72
2021/03/09 10:45:24;;;;;;;0.32;0.32;;;23.80;29.90;;;;;;5092476;28;20450;-72
2021/03/09 10:47:50;;;;;;;1.38;0.73;;;23.80;29.90;;;;;;5093209;28;20020;-72
2021/03/09 10:50:16;;;;;;;0.77;0.60;;;23.80;29.80;;;;;;5089278;28;20055;-72
2021/03/09 10:52:42;;;;;;;2.28;0.47;;;23.80;29.90;;;;;;5088978;28;20103;-72
2021/03/09 10:55:08;;;;;;;1.38;0.82;;;23.80;29.90;;;;;;5098579;28;20150;-71
2021/03/09 10:57:33;;;;;;;1.17;1.02;;;23.80;29.90;;;;;;5083669;28;20028;-71
2021/03/09 10:59:59;;;;;;;3.55;0.70;;;23.80;29.90;;;;;;5080274;28;20103;-71
2021/03/09 11:02:24;;;;;;;1.90;1.00;;;23.80;30.00;;;;;;5068385;28;20039;-71
2021/03/09 11:04:50;;;;;;;0.50;0.50;;;23.80;30.00;;;;;;5077620;28;20028;-71
2021/03/09 11:07:16;;;;;;;2.42;0.88;;;23.80;30.00;;;;;;5073326;28;20043;-72
2021/03/09 11:09:42;;;;;;;1.02;0.65;;;23.80;30.00;;;;;;5079492;28;20028;-71
2021/03/09 11:12:08;;;;;;;3.00;0.90;;;23.80;30.00;;;;;;5086381;28;20030;-71
2021/03/09 11:14:34;;;;;;;0.45;0.38;;;23.80;30.00;;;;;;5090242;28;20028;-71
2021/03/09 11:16:59;;;;;;;0.63;0.50;;;23.80;30.00;;;;;;5087852;28;20584;-71
2021/03/09 11:19:25;;;;;;;1.27;0.85;;;23.80;30.00;;;;;;5089458;28;20024;-71
2021/03/09 11:25:13;;;;;;;1.80;1.50;;;23.80;30.00;;;;;;5089502;28;20403;-79
2021/03/09 11:27:38;;;;;;;2.00;0.98;;;23.80;30.00;;;;;;5081224;28;20024;-79
2021/03/09 11:30:05;;;;;;;2.10;1.02;;;23.80;30.00;;;;;;5074249;28;20126;-79
2021/03/09 11:32:30;;;;;;;0.45;0.45;;;23.80;30.00;;;;;;5082536;28;20043;-79
2021/03/09 11:34:56;;;;;;;1.85;1.13;;;23.80;30.10;;;;;;5083990;28;20024;-79
2021/03/09 11:37:21;;;;;;;0.57;0.57;;;23.80;30.10;;;;;;5089009;28;20069;-79
2021/03/09 11:39:47;;;;;;;2.03;0.50;;;23.80;30.10;;;;;;5088647;28;20023;-79
2021/03/09 11:42:13;;;;;;;3.25;0.80;;;23.80;30.10;;;;;;5088509;28;20381;-79
2021/03/09 11:44:38;;;;;;;2.05;1.13;;;23.80;30.30;;;;;;5089494;28;20043;-78
2021/03/09 11:47:04;;;;;;;1.95;0.95;;;23.80;30.30;;;;;;5091144;28;20022;-78
2021/03/09 11:49:29;;;;;;;2.15;1.52;;;23.80;30.30;;;;;;5088112;28;20028;-79
2021/03/09 11:51:55;;;;;;;0.90;0.50;;;23.70;30.30;;;;;;5080664;28;20060;-78
2021/03/09 11:54:20;;;;;;;0.55;0.40;;;23.70;30.30;;;;;;5089151;28;20032;-79
2021/03/09 11:56:46;;;;;;;0.50;0.50;;;23.70;30.40;;;;;;5088204;28;20027;-72
2021/03/09 11:59:11;;;;;;;2.47;0.85;;;23.70;30.40;;;;;;5084360;28;20032;-72
2021/03/09 12:01:37;;;;;;;1.05;0.60;;;23.70;30.40;;;;;;5086406;28;20518;-71
2021/03/09 12:04:03;;;;;;;1.35;0.70;;;23.70;30.50;;;;;;5089447;28;20024;-71
2021/03/09 12:06:28;;;;;;;0.77;0.60;;;23.70;30.50;;;;;;5085124;28;20021;-72
2021/03/09 12:08:54;;;;;;;5.15;2.17;;;23.70;30.60;;;;;;5089255;28;20408;-72
2021/03/09 12:11:20;;;;;;;1.10;0.70;;;23.70;30.60;;;;;;5079527;28;20030;-72
2021/03/09 12:13:45;;;;;;;3.58;1.75;;;23.70;30.60;;;;;;5092619;28;20039;-72
2021/03/09 12:16:11;;;;;;;1.33;0.82;;;23.70;30.70;;;;;;5090425;28;20073;-72
2021/03/09 12:18:36;;;;;;;2.13;1.00;;;23.60;30.60;;;;;;5089560;28;20079;-72
2021/03/09 12:21:03;;;;;;;0.88;0.70;;;23.60;30.70;;;;;;5089393;28;20499;-72
2021/03/09 12:23:28;;;;;;;0.80;0.40;;;23.60;31.30;;;;;;5071956;28;20028;-72
2021/03/09 12:25:54;;;;;;;6.38;2.85;;;23.60;30.80;;;;;;5090345;28;20024;-72
2021/03/09 12:28:20;;;;;;;0.35;0.30;;;23.60;30.80;;;;;;5079472;28;20029;-72
2021/03/09 12:30:45;;;;;;;0.43;0.25;;;23.60;30.90;;;;;;5083806;28;20407;-72
2021/03/09 12:33:15;;;;;;;1.20;0.47;;;23.60;30.90;;;;;;5086787;28;20055;-72
2021/03/09 12:35:41;;;;;;;0.25;0.25;;;23.60;31.00;;;;;;5082671;28;20020;-72
2021/03/09 12:38:07;;;;;;;0.75;0.47;;;23.60;31.00;;;;;;5088729;28;20028;-72
2021/03/09 12:40:32;;;;;;;0.52;0.52;;;23.60;31.10;;;;;;5073554;28;20032;-72
2021/03/09 12:42:58;;;;;;;1.75;0.95;;;23.60;31.10;;;;;;5093206;28;20032;-72
2021/03/09 12:45:23;;;;;;;0.10;0.10;;;23.60;31.80;;;;;;5091767;28;20495;-72
2021/03/09 12:47:50;;;;;;;0.43;0.35;;;23.50;31.10;;;;;;5086350;28;20169;-72
2021/03/09 12:50:17;;;;;;;0.10;0.10;;;23.60;31.10;;;;;;5082847;28;20016;-72
2021/03/09 12:52:42;;;;;;;2.10;0.98;;;23.60;31.10;;;;;;5090717;28;20496;-72
2021/03/09 12:55:09;;;;;;;1.27;0.40;;;23.50;31.20;;;;;;5088273;28;20024;-72
2021/03/09 12:57:34;;;;;;;0.47;0.47;;;23.60;31.30;;;;;;5073589;28;20039;-72
2021/03/09 13:00:00;;;;;;;0.98;0.52;;;23.60;31.30;;;;;;5073177;28;20021;-72
2021/03/09 13:02:25;;;;;;;2.78;1.23;;;23.60;31.30;;;;;;5076300;28;20028;-72